sensor_id;sensor_type;location;lat;lon;timestamp;P1;durP1;ratioP1;P2;durP2;ratioP2
12900;SDS011;6518;50.930;5.344;2024-03-08T00:00:38;23.53;;;16.10;;
12900;SDS011;6518;50.930;5.344;2024-03-08T00:03:05;20.67;;;15.93;;
12900;SDS011;6518;50.930;5.344;2024-03-08T00:05:32;20.43;;;16.10;;
12900;SDS011;6518;50.930;5.344;2024-03-08T00:07:59;21.73;;;14.93;;
12900;SDS011;6518;50.930;5.344;2024-03-08T00:10:26;22.60;;;16.30;;
12900;SDS011;6518;50.930;5.344;2024-03-08T00:12:54;21.97;;;15.00;;
12900;SDS011;6518;50.930;5.344;2024-03-08T00:15:21;21.83;;;16.23;;
12900;SDS011;6518;50.930;5.344;2024-03-08T00:17:49;21.03;;;15.60;;
12900;SDS011;6518;50.930;5.344;2024-03-08T00:20:16;22.30;;;15.80;;
12900;SDS011;6518;50.930;5.344;2024-03-08T00:22:44;24.00;;;16.70;;
12900;SDS011;6518;50.930;5.344;2024-03-08T00:25:11;23.67;;;16.13;;
12900;SDS011;6518;50.930;5.344;2024-03-08T00:27:38;19.70;;;14.37;;
12900;SDS011;6518;50.930;5.344;2024-03-08T00:30:06;22.47;;;16.43;;
12900;SDS011;6518;50.930;5.344;2024-03-08T00:32:34;22.13;;;16.17;;
12900;SDS011;6518;50.930;5.344;2024-03-08T00:35:04;21.73;;;16.43;;
12900;SDS011;6518;50.930;5.344;2024-03-08T00:37:32;19.60;;;15.47;;
12900;SDS011;6518;50.930;5.344;2024-03-08T00:40:02;23.57;;;17.50;;
12900;SDS011;6518;50.930;5.344;2024-03-08T00:42:30;20.63;;;16.07;;
12900;SDS011;6518;50.930;5.344;2024-03-08T00:44:57;23.33;;;17.03;;
12900;SDS011;6518;50.930;5.344;2024-03-08T00:47:23;20.07;;;16.07;;
12900;SDS011;6518;50.930;5.344;2024-03-08T00:49:52;23.23;;;17.43;;
12900;SDS011;6518;50.930;5.344;2024-03-08T00:52:23;27.43;;;17.63;;
12900;SDS011;6518;50.930;5.344;2024-03-08T00:54:51;22.67;;;16.57;;
12900;SDS011;6518;50.930;5.344;2024-03-08T00:57:18;23.73;;;16.73;;
12900;SDS011;6518;50.930;5.344;2024-03-08T00:59:46;23.93;;;16.30;;
12900;SDS011;6518;50.930;5.344;2024-03-08T01:02:13;22.20;;;16.67;;
12900;SDS011;6518;50.930;5.344;2024-03-08T01:04:42;24.77;;;17.07;;
12900;SDS011;6518;50.930;5.344;2024-03-08T01:07:09;24.43;;;17.97;;
12900;SDS011;6518;50.930;5.344;2024-03-08T01:09:37;22.13;;;16.77;;
12900;SDS011;6518;50.930;5.344;2024-03-08T01:12:05;26.57;;;19.70;;
12900;SDS011;6518;50.930;5.344;2024-03-08T01:14:32;23.70;;;17.97;;
12900;SDS011;6518;50.930;5.344;2024-03-08T01:16:59;23.37;;;17.23;;
12900;SDS011;6518;50.930;5.344;2024-03-08T01:19:27;25.43;;;18.07;;
12900;SDS011;6518;50.930;5.344;2024-03-08T01:21:54;26.20;;;18.07;;
12900;SDS011;6518;50.930;5.344;2024-03-08T01:24:21;24.10;;;18.33;;
12900;SDS011;6518;50.930;5.344;2024-03-08T01:26:50;21.97;;;17.57;;
12900;SDS011;6518;50.930;5.344;2024-03-08T01:29:17;22.73;;;18.27;;
12900;SDS011;6518;50.930;5.344;2024-03-08T01:31:44;21.30;;;18.00;;
12900;SDS011;6518;50.930;5.344;2024-03-08T01:34:11;21.60;;;17.80;;
12900;SDS011;6518;50.930;5.344;2024-03-08T01:36:38;21.93;;;17.90;;
12900;SDS011;6518;50.930;5.344;2024-03-08T01:39:05;23.27;;;17.27;;
12900;SDS011;6518;50.930;5.344;2024-03-08T01:41:33;24.57;;;19.30;;
12900;SDS011;6518;50.930;5.344;2024-03-08T01:44:02;25.30;;;19.37;;
12900;SDS011;6518;50.930;5.344;2024-03-08T01:46:30;23.47;;;18.40;;
12900;SDS011;6518;50.930;5.344;2024-03-08T01:48:57;24.13;;;17.93;;
12900;SDS011;6518;50.930;5.344;2024-03-08T01:51:26;23.47;;;17.77;;
12900;SDS011;6518;50.930;5.344;2024-03-08T01:53:53;24.40;;;17.60;;
12900;SDS011;6518;50.930;5.344;2024-03-08T01:56:22;24.53;;;19.33;;
12900;SDS011;6518;50.930;5.344;2024-03-08T01:58:50;25.23;;;19.70;;
12900;SDS011;6518;50.930;5.344;2024-03-08T02:01:19;22.30;;;17.87;;
12900;SDS011;6518;50.930;5.344;2024-03-08T02:03:46;24.90;;;19.63;;
12900;SDS011;6518;50.930;5.344;2024-03-08T02:06:13;24.20;;;18.93;;
12900;SDS011;6518;50.930;5.344;2024-03-08T02:08:41;24.67;;;18.53;;
12900;SDS011;6518;50.930;5.344;2024-03-08T02:11:10;28.10;;;19.47;;
12900;SDS011;6518;50.930;5.344;2024-03-08T02:13:38;23.33;;;18.73;;
12900;SDS011;6518;50.930;5.344;2024-03-08T02:16:05;23.80;;;19.17;;
12900;SDS011;6518;50.930;5.344;2024-03-08T02:18:34;24.30;;;18.63;;
12900;SDS011;6518;50.930;5.344;2024-03-08T02:21:06;25.57;;;18.53;;
12900;SDS011;6518;50.930;5.344;2024-03-08T02:23:34;24.67;;;18.07;;
12900;SDS011;6518;50.930;5.344;2024-03-08T02:26:01;28.63;;;19.80;;
12900;SDS011;6518;50.930;5.344;2024-03-08T02:28:29;24.73;;;18.83;;
12900;SDS011;6518;50.930;5.344;2024-03-08T02:30:57;23.20;;;18.07;;
12900;SDS011;6518;50.930;5.344;2024-03-08T02:33:27;25.40;;;19.97;;
12900;SDS011;6518;50.930;5.344;2024-03-08T02:35:54;24.03;;;18.47;;
12900;SDS011;6518;50.930;5.344;2024-03-08T02:38:23;26.73;;;19.07;;
12900;SDS011;6518;50.930;5.344;2024-03-08T02:40:50;26.10;;;18.90;;
12900;SDS011;6518;50.930;5.344;2024-03-08T02:43:19;25.47;;;19.43;;
12900;SDS011;6518;50.930;5.344;2024-03-08T02:45:49;26.10;;;19.37;;
12900;SDS011;6518;50.930;5.344;2024-03-08T02:48:18;25.53;;;19.20;;
12900;SDS011;6518;50.930;5.344;2024-03-08T02:50:48;27.63;;;18.43;;
12900;SDS011;6518;50.930;5.344;2024-03-08T02:53:16;25.00;;;19.13;;
12900;SDS011;6518;50.930;5.344;2024-03-08T02:55:45;27.37;;;18.70;;
12900;SDS011;6518;50.930;5.344;2024-03-08T02:58:12;20.73;;;14.23;;
12900;SDS011;6518;50.930;5.344;2024-03-08T03:00:40;28.67;;;19.37;;
12900;SDS011;6518;50.930;5.344;2024-03-08T03:03:08;25.03;;;19.23;;
12900;SDS011;6518;50.930;5.344;2024-03-08T03:05:36;28.17;;;19.40;;
12900;SDS011;6518;50.930;5.344;2024-03-08T03:08:03;26.03;;;20.20;;
12900;SDS011;6518;50.930;5.344;2024-03-08T03:10:33;27.27;;;18.33;;
12900;SDS011;6518;50.930;5.344;2024-03-08T03:13:02;23.53;;;17.37;;
12900;SDS011;6518;50.930;5.344;2024-03-08T03:15:30;23.27;;;18.67;;
12900;SDS011;6518;50.930;5.344;2024-03-08T03:17:59;28.17;;;18.90;;
12900;SDS011;6518;50.930;5.344;2024-03-08T03:20:26;29.03;;;20.43;;
12900;SDS011;6518;50.930;5.344;2024-03-08T03:22:57;27.93;;;19.57;;
12900;SDS011;6518;50.930;5.344;2024-03-08T03:25:26;25.47;;;18.33;;
12900;SDS011;6518;50.930;5.344;2024-03-08T03:27:59;24.77;;;17.47;;
12900;SDS011;6518;50.930;5.344;2024-03-08T03:30:28;24.30;;;18.53;;
12900;SDS011;6518;50.930;5.344;2024-03-08T03:32:59;27.13;;;18.53;;
12900;SDS011;6518;50.930;5.344;2024-03-08T03:35:26;26.13;;;18.33;;
12900;SDS011;6518;50.930;5.344;2024-03-08T03:37:56;24.00;;;19.10;;
12900;SDS011;6518;50.930;5.344;2024-03-08T03:40:31;26.00;;;19.10;;
12900;SDS011;6518;50.930;5.344;2024-03-08T03:42:59;27.43;;;19.87;;
12900;SDS011;6518;50.930;5.344;2024-03-08T03:45:29;26.17;;;18.90;;
12900;SDS011;6518;50.930;5.344;2024-03-08T03:47:59;26.80;;;19.57;;
12900;SDS011;6518;50.930;5.344;2024-03-08T03:50:28;25.47;;;18.97;;
12900;SDS011;6518;50.930;5.344;2024-03-08T03:52:55;25.47;;;17.87;;
12900;SDS011;6518;50.930;5.344;2024-03-08T03:55:22;26.53;;;19.23;;
12900;SDS011;6518;50.930;5.344;2024-03-08T03:57:49;25.63;;;17.70;;
12900;SDS011;6518;50.930;5.344;2024-03-08T04:00:17;27.80;;;18.27;;
12900;SDS011;6518;50.930;5.344;2024-03-08T04:02:46;26.13;;;19.00;;
12900;SDS011;6518;50.930;5.344;2024-03-08T04:05:14;26.23;;;19.40;;
12900;SDS011;6518;50.930;5.344;2024-03-08T04:07:41;25.43;;;17.63;;
12900;SDS011;6518;50.930;5.344;2024-03-08T04:10:10;25.67;;;18.03;;
12900;SDS011;6518;50.930;5.344;2024-03-08T04:12:38;25.50;;;18.33;;
12900;SDS011;6518;50.930;5.344;2024-03-08T04:15:06;28.57;;;18.47;;
12900;SDS011;6518;50.930;5.344;2024-03-08T04:17:36;25.10;;;18.27;;
12900;SDS011;6518;50.930;5.344;2024-03-08T04:20:05;24.07;;;19.33;;
12900;SDS011;6518;50.930;5.344;2024-03-08T04:22:35;28.37;;;20.07;;
12900;SDS011;6518;50.930;5.344;2024-03-08T04:25:02;26.20;;;19.50;;
12900;SDS011;6518;50.930;5.344;2024-03-08T04:27:31;29.53;;;20.90;;
12900;SDS011;6518;50.930;5.344;2024-03-08T04:29:59;29.33;;;19.70;;
12900;SDS011;6518;50.930;5.344;2024-03-08T04:32:26;28.67;;;20.10;;
12900;SDS011;6518;50.930;5.344;2024-03-08T04:34:54;27.60;;;20.00;;
12900;SDS011;6518;50.930;5.344;2024-03-08T04:37:23;30.23;;;20.70;;
12900;SDS011;6518;50.930;5.344;2024-03-08T04:39:50;28.47;;;21.30;;
12900;SDS011;6518;50.930;5.344;2024-03-08T04:42:19;26.90;;;19.53;;
12900;SDS011;6518;50.930;5.344;2024-03-08T04:44:47;28.10;;;19.60;;
12900;SDS011;6518;50.930;5.344;2024-03-08T04:47:14;31.53;;;20.33;;
12900;SDS011;6518;50.930;5.344;2024-03-08T04:49:43;25.53;;;18.60;;
12900;SDS011;6518;50.930;5.344;2024-03-08T04:52:10;27.70;;;18.70;;
12900;SDS011;6518;50.930;5.344;2024-03-08T04:54:40;31.33;;;21.63;;
12900;SDS011;6518;50.930;5.344;2024-03-08T04:57:07;31.53;;;20.23;;
12900;SDS011;6518;50.930;5.344;2024-03-08T04:59:34;27.73;;;19.53;;
12900;SDS011;6518;50.930;5.344;2024-03-08T05:02:02;26.63;;;19.47;;
12900;SDS011;6518;50.930;5.344;2024-03-08T05:04:29;31.73;;;21.40;;
12900;SDS011;6518;50.930;5.344;2024-03-08T05:06:56;30.03;;;20.20;;
12900;SDS011;6518;50.930;5.344;2024-03-08T05:09:26;27.43;;;19.57;;
12900;SDS011;6518;50.930;5.344;2024-03-08T05:11:55;29.63;;;20.53;;
12900;SDS011;6518;50.930;5.344;2024-03-08T05:14:23;28.17;;;19.70;;
12900;SDS011;6518;50.930;5.344;2024-03-08T05:16:51;33.00;;;19.83;;
12900;SDS011;6518;50.930;5.344;2024-03-08T05:19:18;32.00;;;20.07;;
12900;SDS011;6518;50.930;5.344;2024-03-08T05:21:47;27.40;;;19.00;;
12900;SDS011;6518;50.930;5.344;2024-03-08T05:24:15;26.00;;;18.63;;
12900;SDS011;6518;50.930;5.344;2024-03-08T05:26:42;29.20;;;20.63;;
12900;SDS011;6518;50.930;5.344;2024-03-08T05:29:11;28.27;;;18.50;;
12900;SDS011;6518;50.930;5.344;2024-03-08T05:31:43;28.13;;;17.90;;
12900;SDS011;6518;50.930;5.344;2024-03-08T05:34:13;31.00;;;19.90;;
12900;SDS011;6518;50.930;5.344;2024-03-08T05:36:40;28.87;;;19.83;;
12900;SDS011;6518;50.930;5.344;2024-03-08T05:39:09;29.07;;;19.33;;
12900;SDS011;6518;50.930;5.344;2024-03-08T05:41:37;28.57;;;20.43;;
12900;SDS011;6518;50.930;5.344;2024-03-08T05:44:04;33.80;;;21.50;;
12900;SDS011;6518;50.930;5.344;2024-03-08T05:46:33;28.07;;;19.57;;
12900;SDS011;6518;50.930;5.344;2024-03-08T05:49:00;30.67;;;20.00;;
12900;SDS011;6518;50.930;5.344;2024-03-08T05:51:30;28.00;;;18.93;;
12900;SDS011;6518;50.930;5.344;2024-03-08T05:53:59;34.93;;;20.63;;
12900;SDS011;6518;50.930;5.344;2024-03-08T05:56:28;32.70;;;18.83;;
12900;SDS011;6518;50.930;5.344;2024-03-08T05:58:55;27.53;;;19.20;;
12900;SDS011;6518;50.930;5.344;2024-03-08T06:01:22;28.63;;;19.60;;
12900;SDS011;6518;50.930;5.344;2024-03-08T06:03:50;26.77;;;19.60;;
12900;SDS011;6518;50.930;5.344;2024-03-08T06:06:20;32.33;;;20.00;;
12900;SDS011;6518;50.930;5.344;2024-03-08T06:08:48;30.73;;;22.07;;
12900;SDS011;6518;50.930;5.344;2024-03-08T06:11:15;30.47;;;19.93;;
12900;SDS011;6518;50.930;5.344;2024-03-08T06:13:43;25.90;;;19.77;;
12900;SDS011;6518;50.930;5.344;2024-03-08T06:16:11;28.43;;;19.03;;
12900;SDS011;6518;50.930;5.344;2024-03-08T06:18:38;27.90;;;20.27;;
12900;SDS011;6518;50.930;5.344;2024-03-08T06:21:15;31.03;;;19.90;;
12900;SDS011;6518;50.930;5.344;2024-03-08T06:23:42;28.93;;;20.03;;
12900;SDS011;6518;50.930;5.344;2024-03-08T06:26:09;30.07;;;20.23;;
12900;SDS011;6518;50.930;5.344;2024-03-08T06:28:37;29.03;;;19.50;;
12900;SDS011;6518;50.930;5.344;2024-03-08T06:31:04;29.10;;;19.67;;
12900;SDS011;6518;50.930;5.344;2024-03-08T06:33:32;30.50;;;20.90;;
12900;SDS011;6518;50.930;5.344;2024-03-08T06:36:00;29.83;;;20.33;;
12900;SDS011;6518;50.930;5.344;2024-03-08T06:38:29;33.23;;;21.57;;
12900;SDS011;6518;50.930;5.344;2024-03-08T06:40:56;33.07;;;21.43;;
12900;SDS011;6518;50.930;5.344;2024-03-08T06:43:23;25.33;;;18.73;;
12900;SDS011;6518;50.930;5.344;2024-03-08T06:45:57;27.93;;;19.20;;
12900;SDS011;6518;50.930;5.344;2024-03-08T06:48:24;28.17;;;20.10;;
12900;SDS011;6518;50.930;5.344;2024-03-08T06:50:52;25.37;;;17.77;;
12900;SDS011;6518;50.930;5.344;2024-03-08T06:53:19;34.40;;;19.90;;
12900;SDS011;6518;50.930;5.344;2024-03-08T06:55:47;30.43;;;19.70;;
12900;SDS011;6518;50.930;5.344;2024-03-08T06:58:14;28.07;;;19.20;;
12900;SDS011;6518;50.930;5.344;2024-03-08T07:00:41;29.87;;;20.13;;
12900;SDS011;6518;50.930;5.344;2024-03-08T07:03:09;28.37;;;19.70;;
12900;SDS011;6518;50.930;5.344;2024-03-08T07:05:37;27.00;;;19.10;;
12900;SDS011;6518;50.930;5.344;2024-03-08T07:08:05;27.40;;;19.07;;
12900;SDS011;6518;50.930;5.344;2024-03-08T07:10:32;25.93;;;18.57;;
12900;SDS011;6518;50.930;5.344;2024-03-08T07:13:04;25.80;;;18.00;;
12900;SDS011;6518;50.930;5.344;2024-03-08T07:15:31;27.43;;;18.97;;
12900;SDS011;6518;50.930;5.344;2024-03-08T07:17:58;27.30;;;19.97;;
12900;SDS011;6518;50.930;5.344;2024-03-08T07:20:25;24.63;;;16.97;;
12900;SDS011;6518;50.930;5.344;2024-03-08T07:22:53;26.50;;;17.63;;
12900;SDS011;6518;50.930;5.344;2024-03-08T07:25:20;25.37;;;17.33;;
12900;SDS011;6518;50.930;5.344;2024-03-08T07:27:48;25.87;;;17.57;;
12900;SDS011;6518;50.930;5.344;2024-03-08T07:30:17;29.83;;;18.97;;
12900;SDS011;6518;50.930;5.344;2024-03-08T07:32:58;23.87;;;17.73;;
12900;SDS011;6518;50.930;5.344;2024-03-08T07:35:27;25.07;;;17.37;;
12900;SDS011;6518;50.930;5.344;2024-03-08T07:37:54;23.30;;;17.17;;
12900;SDS011;6518;50.930;5.344;2024-03-08T07:40:21;21.73;;;17.83;;
12900;SDS011;6518;50.930;5.344;2024-03-08T07:42:48;22.90;;;16.77;;
12900;SDS011;6518;50.930;5.344;2024-03-08T07:45:15;26.60;;;17.77;;
12900;SDS011;6518;50.930;5.344;2024-03-08T07:47:43;26.00;;;18.50;;
12900;SDS011;6518;50.930;5.344;2024-03-08T07:50:10;23.90;;;17.00;;
12900;SDS011;6518;50.930;5.344;2024-03-08T07:52:41;25.60;;;17.43;;
12900;SDS011;6518;50.930;5.344;2024-03-08T07:55:08;24.83;;;17.23;;
12900;SDS011;6518;50.930;5.344;2024-03-08T07:57:36;25.53;;;17.83;;
12900;SDS011;6518;50.930;5.344;2024-03-08T08:00:04;24.00;;;18.13;;
12900;SDS011;6518;50.930;5.344;2024-03-08T08:02:33;23.97;;;17.13;;
12900;SDS011;6518;50.930;5.344;2024-03-08T08:05:02;23.47;;;17.77;;
12900;SDS011;6518;50.930;5.344;2024-03-08T08:07:30;24.07;;;18.03;;
12900;SDS011;6518;50.930;5.344;2024-03-08T08:09:57;23.73;;;17.20;;
12900;SDS011;6518;50.930;5.344;2024-03-08T08:12:24;24.37;;;16.67;;
12900;SDS011;6518;50.930;5.344;2024-03-08T08:14:53;24.40;;;18.13;;
12900;SDS011;6518;50.930;5.344;2024-03-08T08:17:20;23.60;;;18.17;;
12900;SDS011;6518;50.930;5.344;2024-03-08T08:19:47;23.57;;;17.10;;
12900;SDS011;6518;50.930;5.344;2024-03-08T08:22:15;31.20;;;17.63;;
12900;SDS011;6518;50.930;5.344;2024-03-08T08:24:43;25.43;;;17.57;;
12900;SDS011;6518;50.930;5.344;2024-03-08T08:27:10;22.57;;;16.83;;
12900;SDS011;6518;50.930;5.344;2024-03-08T08:29:37;22.50;;;16.83;;
12900;SDS011;6518;50.930;5.344;2024-03-08T08:32:05;26.77;;;18.00;;
12900;SDS011;6518;50.930;5.344;2024-03-08T08:34:32;24.80;;;17.47;;
12900;SDS011;6518;50.930;5.344;2024-03-08T08:36:59;26.27;;;17.77;;
12900;SDS011;6518;50.930;5.344;2024-03-08T08:39:27;24.10;;;16.70;;
12900;SDS011;6518;50.930;5.344;2024-03-08T08:41:54;20.83;;;16.73;;
12900;SDS011;6518;50.930;5.344;2024-03-08T08:44:23;23.67;;;16.90;;
12900;SDS011;6518;50.930;5.344;2024-03-08T08:46:50;24.23;;;17.27;;
12900;SDS011;6518;50.930;5.344;2024-03-08T08:49:18;21.93;;;16.60;;
12900;SDS011;6518;50.930;5.344;2024-03-08T08:51:48;23.57;;;16.83;;
12900;SDS011;6518;50.930;5.344;2024-03-08T08:54:15;24.10;;;17.20;;
12900;SDS011;6518;50.930;5.344;2024-03-08T08:56:44;20.03;;;15.90;;
12900;SDS011;6518;50.930;5.344;2024-03-08T08:59:12;24.33;;;17.07;;
12900;SDS011;6518;50.930;5.344;2024-03-08T09:01:39;20.43;;;15.90;;
12900;SDS011;6518;50.930;5.344;2024-03-08T09:04:06;23.13;;;15.47;;
12900;SDS011;6518;50.930;5.344;2024-03-08T09:06:33;19.87;;;15.00;;
12900;SDS011;6518;50.930;5.344;2024-03-08T09:09:01;21.03;;;15.23;;
12900;SDS011;6518;50.930;5.344;2024-03-08T09:11:29;22.80;;;15.00;;
12900;SDS011;6518;50.930;5.344;2024-03-08T09:13:57;20.93;;;15.30;;
12900;SDS011;6518;50.930;5.344;2024-03-08T09:16:24;25.07;;;16.60;;
12900;SDS011;6518;50.930;5.344;2024-03-08T09:18:51;21.27;;;16.63;;
12900;SDS011;6518;50.930;5.344;2024-03-08T09:21:18;22.10;;;16.40;;
12900;SDS011;6518;50.930;5.344;2024-03-08T09:23:45;21.77;;;15.33;;
12900;SDS011;6518;50.930;5.344;2024-03-08T09:26:12;23.90;;;16.27;;
12900;SDS011;6518;50.930;5.344;2024-03-08T09:28:40;23.13;;;16.00;;
12900;SDS011;6518;50.930;5.344;2024-03-08T09:31:08;19.67;;;15.10;;
12900;SDS011;6518;50.930;5.344;2024-03-08T09:33:36;22.13;;;16.10;;
12900;SDS011;6518;50.930;5.344;2024-03-08T09:36:04;24.60;;;15.70;;
12900;SDS011;6518;50.930;5.344;2024-03-08T09:38:32;24.70;;;15.50;;
12900;SDS011;6518;50.930;5.344;2024-03-08T09:41:00;20.13;;;14.67;;
12900;SDS011;6518;50.930;5.344;2024-03-08T09:43:29;18.40;;;15.27;;
12900;SDS011;6518;50.930;5.344;2024-03-08T09:45:56;21.77;;;15.47;;
12900;SDS011;6518;50.930;5.344;2024-03-08T09:48:25;23.03;;;15.20;;
12900;SDS011;6518;50.930;5.344;2024-03-08T09:50:52;22.10;;;15.73;;
12900;SDS011;6518;50.930;5.344;2024-03-08T09:53:21;20.27;;;16.00;;
12900;SDS011;6518;50.930;5.344;2024-03-08T09:55:50;20.13;;;15.50;;
12900;SDS011;6518;50.930;5.344;2024-03-08T09:58:17;21.33;;;15.77;;
12900;SDS011;6518;50.930;5.344;2024-03-08T10:01:01;18.80;;;15.10;;
12900;SDS011;6518;50.930;5.344;2024-03-08T10:03:31;20.80;;;16.50;;
12900;SDS011;6518;50.930;5.344;2024-03-08T10:05:58;19.97;;;15.23;;
12900;SDS011;6518;50.930;5.344;2024-03-08T10:08:26;20.67;;;14.83;;
12900;SDS011;6518;50.930;5.344;2024-03-08T10:10:54;22.77;;;14.83;;
12900;SDS011;6518;50.930;5.344;2024-03-08T10:13:23;19.60;;;14.20;;
12900;SDS011;6518;50.930;5.344;2024-03-08T10:15:52;20.63;;;14.90;;
12900;SDS011;6518;50.930;5.344;2024-03-08T10:18:20;21.03;;;15.03;;
12900;SDS011;6518;50.930;5.344;2024-03-08T10:23:34;19.23;;;14.93;;
12900;SDS011;6518;50.930;5.344;2024-03-08T10:26:11;19.50;;;14.47;;
12900;SDS011;6518;50.930;5.344;2024-03-08T10:28:40;17.30;;;14.57;;
12900;SDS011;6518;50.930;5.344;2024-03-08T10:31:08;18.90;;;14.43;;
12900;SDS011;6518;50.930;5.344;2024-03-08T10:33:35;19.03;;;14.10;;
12900;SDS011;6518;50.930;5.344;2024-03-08T10:36:07;20.40;;;13.60;;
12900;SDS011;6518;50.930;5.344;2024-03-08T10:38:35;17.77;;;14.20;;
12900;SDS011;6518;50.930;5.344;2024-03-08T10:41:04;20.27;;;14.53;;
12900;SDS011;6518;50.930;5.344;2024-03-08T10:43:47;20.50;;;15.07;;
12900;SDS011;6518;50.930;5.344;2024-03-08T10:46:27;19.10;;;14.80;;
12900;SDS011;6518;50.930;5.344;2024-03-08T10:49:02;19.10;;;14.57;;
12900;SDS011;6518;50.930;5.344;2024-03-08T10:51:34;21.53;;;14.80;;
12900;SDS011;6518;50.930;5.344;2024-03-08T10:54:03;21.13;;;15.87;;
12900;SDS011;6518;50.930;5.344;2024-03-08T10:56:32;19.83;;;14.83;;
12900;SDS011;6518;50.930;5.344;2024-03-08T10:58:59;22.03;;;14.50;;
12900;SDS011;6518;50.930;5.344;2024-03-08T11:01:27;18.27;;;14.37;;
12900;SDS011;6518;50.930;5.344;2024-03-08T11:03:55;20.33;;;15.73;;
12900;SDS011;6518;50.930;5.344;2024-03-08T11:06:23;16.87;;;13.30;;
12900;SDS011;6518;50.930;5.344;2024-03-08T11:08:57;19.60;;;14.40;;
12900;SDS011;6518;50.930;5.344;2024-03-08T11:11:27;20.43;;;14.37;;
12900;SDS011;6518;50.930;5.344;2024-03-08T11:13:56;18.90;;;14.67;;
12900;SDS011;6518;50.930;5.344;2024-03-08T11:16:36;18.10;;;13.67;;
12900;SDS011;6518;50.930;5.344;2024-03-08T11:21:56;18.07;;;14.17;;
12900;SDS011;6518;50.930;5.344;2024-03-08T11:24:25;18.93;;;14.27;;
12900;SDS011;6518;50.930;5.344;2024-03-08T11:26:56;18.60;;;14.63;;
12900;SDS011;6518;50.930;5.344;2024-03-08T11:29:34;18.40;;;14.60;;
12900;SDS011;6518;50.930;5.344;2024-03-08T11:32:05;19.37;;;14.93;;
12900;SDS011;6518;50.930;5.344;2024-03-08T11:34:34;20.93;;;14.10;;
12900;SDS011;6518;50.930;5.344;2024-03-08T11:37:03;17.07;;;14.10;;
12900;SDS011;6518;50.930;5.344;2024-03-08T11:39:36;19.10;;;13.87;;
12900;SDS011;6518;50.930;5.344;2024-03-08T11:42:03;15.43;;;12.27;;
12900;SDS011;6518;50.930;5.344;2024-03-08T11:44:31;21.50;;;14.90;;
12900;SDS011;6518;50.930;5.344;2024-03-08T11:46:58;20.83;;;15.60;;
12900;SDS011;6518;50.930;5.344;2024-03-08T11:49:25;24.37;;;15.23;;
12900;SDS011;6518;50.930;5.344;2024-03-08T11:51:52;20.50;;;13.93;;
12900;SDS011;6518;50.930;5.344;2024-03-08T11:54:20;19.50;;;14.07;;
12900;SDS011;6518;50.930;5.344;2024-03-08T11:56:49;18.50;;;14.00;;
12900;SDS011;6518;50.930;5.344;2024-03-08T11:59:18;19.43;;;13.43;;
12900;SDS011;6518;50.930;5.344;2024-03-08T12:01:57;18.20;;;14.33;;
12900;SDS011;6518;50.930;5.344;2024-03-08T12:04:28;17.40;;;13.43;;
12900;SDS011;6518;50.930;5.344;2024-03-08T12:06:57;18.30;;;14.10;;
12900;SDS011;6518;50.930;5.344;2024-03-08T12:09:27;19.07;;;13.77;;
12900;SDS011;6518;50.930;5.344;2024-03-08T12:11:57;20.47;;;13.40;;
12900;SDS011;6518;50.930;5.344;2024-03-08T12:14:25;17.30;;;13.53;;
12900;SDS011;6518;50.930;5.344;2024-03-08T12:16:52;18.80;;;14.07;;
12900;SDS011;6518;50.930;5.344;2024-03-08T12:19:20;17.43;;;13.77;;
12900;SDS011;6518;50.930;5.344;2024-03-08T12:21:49;16.40;;;12.97;;
12900;SDS011;6518;50.930;5.344;2024-03-08T12:24:16;19.93;;;14.30;;
12900;SDS011;6518;50.930;5.344;2024-03-08T12:26:45;22.60;;;14.80;;
12900;SDS011;6518;50.930;5.344;2024-03-08T12:29:18;18.20;;;14.27;;
12900;SDS011;6518;50.930;5.344;2024-03-08T12:31:47;17.97;;;13.80;;
12900;SDS011;6518;50.930;5.344;2024-03-08T12:34:17;22.13;;;13.37;;
12900;SDS011;6518;50.930;5.344;2024-03-08T12:36:47;18.67;;;13.50;;
12900;SDS011;6518;50.930;5.344;2024-03-08T12:39:15;18.20;;;13.60;;
12900;SDS011;6518;50.930;5.344;2024-03-08T12:41:47;19.20;;;13.73;;
12900;SDS011;6518;50.930;5.344;2024-03-08T12:44:14;16.90;;;13.47;;
12900;SDS011;6518;50.930;5.344;2024-03-08T12:46:43;17.63;;;13.30;;
12900;SDS011;6518;50.930;5.344;2024-03-08T12:49:11;17.03;;;14.03;;
12900;SDS011;6518;50.930;5.344;2024-03-08T12:51:38;20.43;;;13.57;;
12900;SDS011;6518;50.930;5.344;2024-03-08T12:54:06;17.83;;;14.23;;
12900;SDS011;6518;50.930;5.344;2024-03-08T12:56:33;17.37;;;13.33;;
12900;SDS011;6518;50.930;5.344;2024-03-08T12:59:02;15.80;;;12.53;;
12900;SDS011;6518;50.930;5.344;2024-03-08T13:01:30;15.97;;;13.37;;
12900;SDS011;6518;50.930;5.344;2024-03-08T13:03:59;19.00;;;13.33;;
12900;SDS011;6518;50.930;5.344;2024-03-08T13:06:28;16.40;;;12.07;;
12900;SDS011;6518;50.930;5.344;2024-03-08T13:08:56;16.87;;;13.10;;
12900;SDS011;6518;50.930;5.344;2024-03-08T13:11:23;17.63;;;13.30;;
12900;SDS011;6518;50.930;5.344;2024-03-08T13:13:51;19.07;;;13.10;;
12900;SDS011;6518;50.930;5.344;2024-03-08T13:16:18;18.27;;;13.33;;
12900;SDS011;6518;50.930;5.344;2024-03-08T13:18:46;17.93;;;13.30;;
12900;SDS011;6518;50.930;5.344;2024-03-08T13:21:15;20.00;;;13.23;;
12900;SDS011;6518;50.930;5.344;2024-03-08T13:23:44;22.63;;;13.70;;
12900;SDS011;6518;50.930;5.344;2024-03-08T13:26:14;17.97;;;13.37;;
12900;SDS011;6518;50.930;5.344;2024-03-08T13:28:42;16.93;;;12.30;;
12900;SDS011;6518;50.930;5.344;2024-03-08T13:31:10;16.90;;;11.93;;
12900;SDS011;6518;50.930;5.344;2024-03-08T13:33:37;16.23;;;12.97;;
12900;SDS011;6518;50.930;5.344;2024-03-08T13:36:06;15.53;;;11.33;;
12900;SDS011;6518;50.930;5.344;2024-03-08T13:38:42;17.00;;;12.43;;
12900;SDS011;6518;50.930;5.344;2024-03-08T13:41:09;15.60;;;11.60;;
12900;SDS011;6518;50.930;5.344;2024-03-08T13:43:39;16.50;;;11.10;;
12900;SDS011;6518;50.930;5.344;2024-03-08T13:46:06;15.33;;;12.50;;
12900;SDS011;6518;50.930;5.344;2024-03-08T13:48:35;20.83;;;13.87;;
12900;SDS011;6518;50.930;5.344;2024-03-08T13:51:03;16.53;;;12.17;;
12900;SDS011;6518;50.930;5.344;2024-03-08T13:53:31;18.93;;;13.07;;
12900;SDS011;6518;50.930;5.344;2024-03-08T13:55:59;18.93;;;12.73;;
12900;SDS011;6518;50.930;5.344;2024-03-08T13:58:27;22.40;;;13.80;;
12900;SDS011;6518;50.930;5.344;2024-03-08T14:00:54;17.63;;;11.73;;
12900;SDS011;6518;50.930;5.344;2024-03-08T14:03:20;19.53;;;12.57;;
12900;SDS011;6518;50.930;5.344;2024-03-08T14:05:48;16.83;;;11.63;;
12900;SDS011;6518;50.930;5.344;2024-03-08T14:08:15;16.93;;;12.10;;
12900;SDS011;6518;50.930;5.344;2024-03-08T14:10:42;16.73;;;11.73;;
12900;SDS011;6518;50.930;5.344;2024-03-08T14:13:13;15.43;;;10.77;;
12900;SDS011;6518;50.930;5.344;2024-03-08T14:15:41;16.20;;;11.43;;
12900;SDS011;6518;50.930;5.344;2024-03-08T14:18:09;16.57;;;13.37;;
12900;SDS011;6518;50.930;5.344;2024-03-08T14:20:38;18.00;;;12.13;;
12900;SDS011;6518;50.930;5.344;2024-03-08T14:23:05;18.73;;;12.27;;
12900;SDS011;6518;50.930;5.344;2024-03-08T14:25:33;16.73;;;11.33;;
12900;SDS011;6518;50.930;5.344;2024-03-08T14:28:00;14.47;;;11.03;;
12900;SDS011;6518;50.930;5.344;2024-03-08T14:30:33;17.20;;;12.40;;
12900;SDS011;6518;50.930;5.344;2024-03-08T14:33:03;18.13;;;12.07;;
12900;SDS011;6518;50.930;5.344;2024-03-08T14:35:32;18.27;;;12.03;;
12900;SDS011;6518;50.930;5.344;2024-03-08T14:38:00;16.70;;;12.03;;
12900;SDS011;6518;50.930;5.344;2024-03-08T14:40:27;17.73;;;12.17;;
12900;SDS011;6518;50.930;5.344;2024-03-08T14:42:55;20.67;;;11.83;;
12900;SDS011;6518;50.930;5.344;2024-03-08T14:45:22;13.87;;;11.47;;